Time;durP1;ratioP1;P1;durP2;ratioP2;P2;SDS_P1;SDS_P2;PMS_P1;PMS_P2;Temp;Humidity;BMP_temperature;BMP_pressure;BME280_temperature;BME280_humidity;BME280_pressure;Samples;Min_cycle;Max_cycle;Signal;HPM_P1;HPM_P2
2021/11/25 00:00:35;;;;;;;67.35;38.38;;;;;;;-2.56;100.00;99270.25;2039088;28;20285;-73
2021/11/25 00:01:39;;;;;;;74.05;40.17;;;;;;;-2.57;100.00;99264.22;2038442;29;20301;-72
2021/11/25 00:02:40;;;;;;;67.90;41.20;;;;;;;-2.57;100.00;99260.81;2037800;29;20230;-72
2021/11/25 00:03:42;;;;;;;75.20;43.78;;;;;;;-2.56;100.00;99265.03;2038294;29;20626;-73
2021/11/25 00:04:44;;;;;;;72.15;40.97;;;;;;;-2.56;100.00;99263.22;2038482;29;20573;-73
2021/11/25 00:05:45;;;;;;;70.53;41.35;;;;;;;-2.56;100.00;99257.19;2038243;29;20226;-73
2021/11/25 00:06:48;;;;;;;72.63;41.10;;;;;;;-2.56;100.00;99254.56;2038431;29;20226;-72
2021/11/25 00:07:48;;;;;;;65.80;39.10;;;;;;;-2.58;100.00;99261.81;2038240;29;20722;-73
2021/11/25 00:08:52;;;;;;;65.13;39.03;;;;;;;-2.61;100.00;99254.38;2038412;29;20578;-73
2021/11/25 00:09:53;;;;;;;75.55;39.40;;;;;;;-2.61;100.00;99257.00;2037814;29;20710;-73
2021/11/25 00:10:55;;;;;;;68.47;39.23;;;;;;;-2.64;100.00;99252.19;2038110;29;20654;-73
2021/11/25 00:11:55;;;;;;;70.18;39.15;;;;;;;-2.64;100.00;99258.22;2030275;29;20476;-73
2021/11/25 00:12:57;;;;;;;67.80;39.13;;;;;;;-2.68;100.00;99251.81;2038183;29;20242;-72
2021/11/25 00:13:59;;;;;;;71.03;41.58;;;;;;;-2.66;100.00;99254.22;2038102;29;20259;-73
2021/11/25 00:15:02;;;;;;;73.78;41.50;;;;;;;-2.66;100.00;99251.59;2038232;29;20230;-72
2021/11/25 00:16:04;;;;;;;74.85;42.63;;;;;;;-2.67;100.00;99247.38;2038042;29;20635;-72
2021/11/25 00:17:06;;;;;;;81.53;43.80;;;;;;;-2.66;100.00;99249.00;2030106;29;20231;-72
2021/11/25 00:18:06;;;;;;;75.82;42.88;;;;;;;-2.66;100.00;99247.19;2037738;28;20227;-73
2021/11/25 00:19:08;;;;;;;68.17;41.57;;;;;;;-2.69;100.00;99250.22;2038261;29;20223;-73
2021/11/25 00:20:11;;;;;;;70.00;41.58;;;;;;;-2.69;100.00;99249.41;2030495;29;20224;-72
2021/11/25 00:21:13;;;;;;;77.30;42.47;;;;;;;-2.70;100.00;99243.34;2030425;29;20314;-73
2021/11/25 00:22:14;;;;;;;85.30;46.38;;;;;;;-2.69;100.00;99249.41;2038372;29;20233;-73
2021/11/25 00:23:18;;;;;;;80.32;45.03;;;;;;;-2.73;100.00;99241.16;2038016;29;20223;-73
2021/11/25 00:24:22;;;;;;;84.18;46.22;;;;;;;-2.73;100.00;99250.81;2030911;29;20231;-72
2021/11/25 00:25:23;;;;;;;79.65;44.10;;;;;;;-2.73;100.00;99256.03;2037767;29;20230;-73
2021/11/25 00:26:25;;;;;;;86.80;48.03;;;;;;;-2.74;100.00;99257.84;2038757;28;20254;-72
2021/11/25 00:27:27;;;;;;;85.80;45.90;;;;;;;-2.76;100.00;99257.25;2038242;29;20237;-72
2021/11/25 00:28:28;;;;;;;90.93;48.45;;;;;;;-2.74;100.00;99251.81;2038165;29;20227;-72
2021/11/25 00:29:31;;;;;;;85.43;46.90;;;;;;;-2.74;100.00;99257.84;2038790;28;20286;-73
2021/11/25 00:30:33;;;;;;;83.60;47.30;;;;;;;-2.73;100.00;99256.84;2037926;29;20301;-72
2021/11/25 00:31:35;;;;;;;86.63;48.63;;;;;;;-2.73;100.00;99249.00;2038100;29;20285;-73
2021/11/25 00:32:37;;;;;;;86.75;47.80;;;;;;;-2.71;100.00;99256.63;2038972;28;20235;-73
2021/11/25 00:33:39;;;;;;;94.15;49.80;;;;;;;-2.70;100.00;99247.78;2037498;29;20314;-73
2021/11/25 00:34:40;;;;;;;92.43;51.67;;;;;;;-2.66;100.00;99243.75;2038001;29;20231;-72
2021/11/25 00:35:42;;;;;;;92.50;50.43;;;;;;;-2.63;100.00;99253.78;2038726;28;20286;-73
2021/11/25 00:36:44;;;;;;;93.28;52.83;;;;;;;-2.63;100.00;99240.72;2037955;29;20481;-73
2021/11/25 00:37:49;;;;;;;92.47;50.58;;;;;;;-2.60;100.00;99242.94;2038047;29;20226;-72
2021/11/25 00:38:52;;;;;;;99.32;53.58;;;;;;;-2.62;100.00;99232.69;2037424;29;20234;-74
2021/11/25 00:39:55;;;;;;;97.27;51.87;;;;;;;-2.62;100.00;99237.09;2037797;29;20288;-72
2021/11/25 00:40:56;;;;;;;98.13;50.78;;;;;;;-2.61;100.00;99230.88;2037978;29;20234;-73
2021/11/25 00:41:58;;;;;;;93.10;50.93;;;;;;;-2.62;100.00;99237.91;2038038;29;20282;-72
2021/11/25 00:43:00;;;;;;;94.88;51.67;;;;;;;-2.64;100.00;99232.09;2038231;29;20249;-72
2021/11/25 00:44:02;;;;;;;104.93;51.10;;;;;;;-2.62;100.00;99237.09;2038847;28;20665;-73
2021/11/25 00:45:04;;;;;;;100.03;52.03;;;;;;;-2.63;100.00;99232.91;2038797;28;20226;-73
2021/11/25 00:46:06;;;;;;;91.78;51.20;;;;;;;-2.62;100.00;99224.84;2038823;28;20721;-72
2021/11/25 00:47:08;;;;;;;98.72;53.13;;;;;;;-2.61;100.00;99231.72;2037481;29;20247;-74
2021/11/25 00:48:09;;;;;;;106.88;55.58;;;;;;;-2.64;100.00;99216.44;2030304;29;20576;-73
2021/11/25 00:49:11;;;;;;;102.87;54.43;;;;;;;-2.60;100.00;99222.06;2038059;29;20250;-73
2021/11/25 00:50:17;;;;;;;99.95;53.17;;;;;;;-2.61;100.00;99220.44;2038783;28;20243;-72
2021/11/25 00:51:21;;;;;;;105.93;54.13;;;;;;;-2.58;100.00;99225.25;2038812;28;20226;-73
2021/11/25 00:52:21;;;;;;;103.68;53.35;;;;;;;-2.59;100.00;99218.44;2038244;28;20241;-74
2021/11/25 00:53:23;;;;;;;102.63;53.83;;;;;;;-2.59;100.00;99215.81;2038720;28;20235;-72
2021/11/25 00:54:24;;;;;;;104.80;54.38;;;;;;;-2.61;100.00;99213.44;2038027;29;20231;-73
2021/11/25 00:55:27;;;;;;;102.10;56.00;;;;;;;-2.60;100.00;99217.63;2037854;29;20780;-73
2021/11/25 00:56:28;;;;;;;110.28;57.17;;;;;;;-2.60;100.00;99216.84;2038127;29;20231;-72
2021/11/25 00:57:32;;;;;;;102.60;55.73;;;;;;;-2.61;100.00;99209.97;2038727;28;20233;-72
2021/11/25 00:58:33;;;;;;;103.20;55.25;;;;;;;-2.62;100.00;99213.59;2039521;29;20250;-72
2021/11/25 00:59:35;;;;;;;102.85;54.45;;;;;;;-2.63;100.00;99204.97;2039741;29;20227;-73
2021/11/25 01:00:36;;;;;;;102.35;54.75;;;;;;;-2.63;100.00;99207.59;2039655;29;20333;-72
2021/11/25 01:01:38;;;;;;;99.22;54.13;;;;;;;-2.63;100.00;99204.97;2039272;29;20230;-73
2021/11/25 01:02:39;;;;;;;102.88;55.95;;;;;;;-2.62;100.00;99206.56;2040237;28;20642;-72
2021/11/25 01:03:41;;;;;;;108.63;55.63;;;;;;;-2.63;100.00;99212.81;2040322;28;20230;-72
2021/11/25 01:04:42;;;;;;;107.43;57.53;;;;;;;-2.66;100.00;99199.38;2040365;28;20466;-73
2021/11/25 01:05:44;;;;;;;101.25;57.55;;;;;;;-2.65;100.00;99203.59;2040312;28;20233;-73
2021/11/25 01:06:45;;;;;;;114.95;59.15;;;;;;;-2.65;100.00;99203.59;2039584;29;20590;-72
2021/11/25 01:07:47;;;;;;;104.70;58.77;;;;;;;-2.68;100.00;99198.78;2031666;29;20242;-72
2021/11/25 01:08:48;;;;;;;113.97;58.97;;;;;;;-2.68;100.00;99196.97;2039726;29;20227;-73
2021/11/25 01:09:49;;;;;;;110.30;59.13;;;;;;;-2.67;100.00;99200.38;2031592;29;20278;-72
2021/11/25 01:10:52;;;;;;;106.85;58.40;;;;;;;-2.68;100.00;99199.59;2031743;29;20287;-72
2021/11/25 01:12:01;;;;;;;110.30;61.00;;;;;;;-2.69;100.00;99200.59;2039261;29;20235;-72
2021/11/25 01:13:02;;;;;;;112.72;60.90;;;;;;;-2.67;100.00;99203.00;2040231;28;20230;-72
2021/11/25 01:14:03;;;;;;;112.67;60.13;;;;;;;-2.67;100.00;99205.59;2039377;29;20673;-72
2021/11/25 01:15:05;;;;;;;114.03;58.50;;;;;;;-2.68;100.00;99201.41;2039482;29;20222;-72
2021/11/25 01:16:07;;;;;;;101.72;57.60;;;;;;;-2.72;100.00;99198.38;2040119;28;20580;-73
2021/11/25 01:17:08;;;;;;;118.85;60.03;;;;;;;-2.71;100.00;99192.16;2039018;29;20709;-74
2021/11/25 01:18:13;;;;;;;110.78;58.03;;;;;;;-2.72;100.00;99185.31;2039533;29;20676;-73
2021/11/25 01:19:15;;;;;;;111.93;61.53;;;;;;;-2.74;100.00;99183.94;2039580;29;20696;-72
2021/11/25 01:20:18;;;;;;;108.82;59.65;;;;;;;-2.74;100.00;99186.53;2039502;29;20234;-73
2021/11/25 01:21:18;;;;;;;112.40;60.22;;;;;;;-2.76;100.00;99189.38;2040190;28;20281;-73
2021/11/25 01:22:20;;;;;;;110.37;58.80;;;;;;;-2.76;100.00;99188.56;2039528;29;20290;-72
2021/11/25 01:23:23;;;;;;;108.75;56.20;;;;;;;-2.79;100.00;99181.94;2039399;29;20226;-72
2021/11/25 01:24:25;;;;;;;114.97;59.60;;;;;;;-2.86;100.00;99171.53;2039094;29;20282;-73
2021/11/25 01:25:28;;;;;;;109.68;60.20;;;;;;;-2.83;100.00;99174.72;2039256;29;20383;-72
2021/11/25 01:26:32;;;;;;;108.10;60.28;;;;;;;-2.82;100.00;99179.75;2039204;29;20227;-72
2021/11/25 01:27:33;;;;;;;112.68;59.13;;;;;;;-2.81;100.00;99165.69;2040090;28;20243;-72
2021/11/25 01:28:35;;;;;;;111.40;60.83;;;;;;;-2.82;100.00;99165.88;2039534;29;20226;-73
2021/11/25 01:29:36;;;;;;;119.38;60.85;;;;;;;-2.81;100.00;99163.06;2039298;29;20534;-73
2021/11/25 01:30:38;;;;;;;123.60;62.43;;;;;;;-2.82;100.00;99168.50;2030946;29;20235;-73
2021/11/25 01:31:39;;;;;;;114.38;62.42;;;;;;;-2.83;100.00;99159.06;2031441;29;20242;-72
2021/11/25 01:32:41;;;;;;;112.53;60.78;;;;;;;-2.82;100.00;99163.28;2039440;29;20724;-73
2021/11/25 01:33:44;;;;;;;118.07;60.67;;;;;;;-2.83;100.00;99164.28;2039283;29;20237;-73
2021/11/25 01:34:46;;;;;;;119.15;62.00;;;;;;;-2.82;100.00;99160.66;2038960;29;20229;-72
2021/11/25 01:35:49;;;;;;;113.00;59.88;;;;;;;-2.85;100.00;99159.28;2031701;29;20311;-73
2021/11/25 01:36:50;;;;;;;122.22;63.28;;;;;;;-2.86;100.00;99155.06;2031689;29;20674;-72
2021/11/25 01:37:51;;;;;;;118.90;61.33;;;;;;;-2.87;100.00;99159.50;2039445;29;20246;-73
2021/11/25 01:38:54;;;;;;;116.30;61.95;;;;;;;-2.87;100.00;99154.28;2039573;28;20246;-73
2021/11/25 01:39:55;;;;;;;122.35;62.03;;;;;;;-2.88;100.00;99155.25;2039801;28;20231;-72
2021/11/25 01:40:57;;;;;;;110.03;62.20;;;;;;;-2.88;100.00;99147.41;2040038;28;20235;-72
2021/11/25 01:42:00;;;;;;;114.82;62.28;;;;;;;-2.87;100.00;99151.66;2039966;28;20579;-73
2021/11/25 01:43:02;;;;;;;134.00;63.92;;;;;;;-2.87;100.00;99159.50;2039500;29;20227;-72
2021/11/25 01:44:03;;;;;;;123.10;62.97;;;;;;;-2.87;100.00;99153.44;2039483;29;20218;-72
2021/11/25 01:45:05;;;;;;;126.25;62.42;;;;;;;-2.89;100.00;99150.25;2039392;29;20246;-72
2021/11/25 01:46:12;;;;;;;117.72;61.92;;;;;;;-2.92;100.00;99151.47;2031522;29;20257;-73
2021/11/25 01:47:14;;;;;;;121.63;62.28;;;;;;;-2.92;100.00;99143.63;2038784;29;20565;-72
2021/11/25 01:48:17;;;;;;;123.35;62.42;;;;;;;-2.93;100.00;99139.44;2039384;29;20227;-73
2021/11/25 01:49:18;;;;;;;118.70;62.45;;;;;;;-2.94;100.00;99142.25;2039199;29;20262;-72
2021/11/25 01:50:20;;;;;;;123.20;63.30;;;;;;;-2.95;100.00;99138.03;2039410;29;20306;-72
2021/11/25 01:51:22;;;;;;;118.60;62.90;;;;;;;-2.94;100.00;99142.25;2039370;29;20231;-73
2021/11/25 01:52:24;;;;;;;124.30;63.47;;;;;;;-2.94;100.00;99144.84;2038772;29;20281;-73
2021/11/25 01:53:27;;;;;;;128.00;65.88;;;;;;;-2.94;100.00;99135.22;2031388;29;20235;-72
2021/11/25 01:54:29;;;;;;;122.15;62.30;;;;;;;-2.95;100.00;99144.06;2039411;29;20225;-72
2021/11/25 01:55:31;;;;;;;117.32;61.65;;;;;;;-2.96;100.00;99131.19;2039189;29;20231;-73
2021/11/25 01:56:37;;;;;;;126.95;64.30;;;;;;;-2.96;100.00;99139.81;2039304;29;20309;-72
2021/11/25 01:57:40;;;;;;;118.30;61.95;;;;;;;-2.98;100.00;99131.41;2039355;28;20250;-73
2021/11/25 01:58:48;;;;;;;119.72;60.78;;;;;;;-2.97;100.00;99133.00;2039836;28;20278;-72
2021/11/25 01:59:49;;;;;;;121.60;62.03;;;;;;;-2.96;100.00;99132.00;2039182;29;20598;-72
2021/11/25 02:00:55;;;;;;;119.60;62.13;;;;;;;-2.98;100.00;99131.41;2039224;29;20314;-73
2021/11/25 02:01:56;;;;;;;115.72;59.88;;;;;;;-2.98;100.00;99126.19;2038768;29;20729;-72
2021/11/25 02:02:59;;;;;;;114.95;61.20;;;;;;;-3.00;100.00;99122.19;2038939;29;20262;-72
2021/11/25 02:04:01;;;;;;;124.05;63.58;;;;;;;-2.98;100.00;99125.38;2031622;29;20648;-72
2021/11/25 02:05:03;;;;;;;123.32;63.72;;;;;;;-2.98;100.00;99126.19;2039099;29;20230;-73
2021/11/25 02:06:05;;;;;;;120.03;61.42;;;;;;;-3.00;100.00;99112.53;2039948;28;20234;-72
2021/11/25 02:07:09;;;;;;;124.88;64.65;;;;;;;-3.02;100.00;99111.16;2039091;29;20231;-72
2021/11/25 02:08:10;;;;;;;127.30;64.03;;;;;;;-2.99;100.00;99110.72;2038749;29;20240;-72
2021/11/25 02:09:12;;;;;;;118.18;63.03;;;;;;;-3.02;100.00;99109.34;2039097;29;20238;-73
2021/11/25 02:10:14;;;;;;;120.05;60.95;;;;;;;-3.03;100.00;99110.34;2039237;29;20239;-73
2021/11/25 02:11:16;;;;;;;129.00;63.50;;;;;;;-3.01;100.00;99110.94;2039749;28;20219;-73
2021/11/25 02:12:17;;;;;;;123.43;62.72;;;;;;;-3.03;100.00;99112.97;2039192;29;20301;-73
2021/11/25 02:13:20;;;;;;;117.97;60.70;;;;;;;-3.03;100.00;99102.53;2031167;29;20576;-73
2021/11/25 02:14:21;;;;;;;114.38;61.30;;;;;;;-3.05;100.00;99098.50;2039160;29;20635;-72
2021/11/25 02:15:23;;;;;;;121.15;61.83;;;;;;;-3.04;100.00;99111.38;2038687;29;20293;-73
2021/11/25 02:16:24;;;;;;;118.97;63.08;;;;;;;-3.06;100.00;99108.13;2039119;29;20308;-72
2021/11/25 02:17:26;;;;;;;120.97;61.50;;;;;;;-3.09;100.00;99100.72;2039711;28;20677;-73
2021/11/25 02:18:27;;;;;;;116.95;61.03;;;;;;;-3.13;100.00;99094.31;2039779;28;20282;-73
2021/11/25 02:19:30;;;;;;;122.80;63.30;;;;;;;-3.11;100.00;99097.53;2039664;28;20235;-73
2021/11/25 02:20:33;;;;;;;125.13;63.38;;;;;;;-3.13;100.00;99096.91;2039535;28;20223;-72
2021/11/25 02:21:35;;;;;;;120.15;61.15;;;;;;;-3.12;100.00;99095.94;2038965;29;20342;-72
2021/11/25 02:22:37;;;;;;;120.22;64.85;;;;;;;-3.12;100.00;99098.56;2039003;29;20262;-73
2021/11/25 02:23:39;;;;;;;118.13;62.95;;;;;;;-3.13;100.00;99095.13;2038570;29;20250;-73
2021/11/25 02:24:40;;;;;;;118.50;61.13;;;;;;;-3.13;100.00;99091.69;2039032;29;20230;-73
2021/11/25 02:25:42;;;;;;;123.03;62.73;;;;;;;-3.15;100.00;99086.69;2039550;28;20290;-72
2021/11/25 02:26:43;;;;;;;115.57;61.72;;;;;;;-3.16;100.00;99081.69;2039614;28;20231;-73
2021/11/25 02:27:45;;;;;;;122.97;62.73;;;;;;;-3.14;100.00;99087.50;2038834;29;20227;-73
2021/11/25 02:28:46;;;;;;;128.60;64.70;;;;;;;-3.17;100.00;99077.47;2031486;29;20223;-73
2021/11/25 02:29:50;;;;;;;124.45;63.20;;;;;;;-3.15;100.00;99083.28;2038953;29;20238;-73
2021/11/25 02:30:52;;;;;;;116.93;63.00;;;;;;;-3.16;100.00;99081.69;2038702;29;20262;-73
2021/11/25 02:31:54;;;;;;;127.30;63.88;;;;;;;-3.15;100.00;99078.88;2038635;29;20234;-73
2021/11/25 02:32:55;;;;;;;122.70;62.15;;;;;;;-3.16;100.00;99077.28;2038882;29;20227;-72
2021/11/25 02:33:56;;;;;;;127.43;65.85;;;;;;;-3.15;100.00;99086.69;2038904;29;20231;-72
2021/11/25 02:34:58;;;;;;;120.93;62.23;;;;;;;-3.15;100.00;99080.69;2038885;29;20266;-73
2021/11/25 02:36:02;;;;;;;123.40;63.42;;;;;;;-3.16;100.00;99071.25;2038829;29;20462;-73
2021/11/25 02:37:03;;;;;;;131.65;65.47;;;;;;;-3.16;100.00;99073.84;2039662;28;20701;-72
2021/11/25 02:38:06;;;;;;;120.38;64.68;;;;;;;-3.17;100.00;99069.66;2039671;28;20577;-73
2021/11/25 02:39:07;;;;;;;126.70;62.58;;;;;;;-3.19;100.00;99062.03;2039549;28;20223;-73
2021/11/25 02:40:14;;;;;;;125.28;63.20;;;;;;;-3.19;100.00;99066.47;2039054;28;20235;-72
2021/11/25 02:41:16;;;;;;;135.20;65.47;;;;;;;-3.19;100.00;99061.25;2039034;29;20222;-72
2021/11/25 02:42:19;;;;;;;122.38;62.60;;;;;;;-3.17;100.00;99067.84;2038903;29;20744;-72
2021/11/25 02:43:28;;;;;;;124.50;62.78;;;;;;;-3.18;100.00;99055.00;2039032;29;20226;-72
2021/11/25 02:44:29;;;;;;;117.45;60.83;;;;;;;-3.19;100.00;99054.22;2031673;29;20231;-73
2021/11/25 02:45:32;;;;;;;116.97;62.23;;;;;;;-3.19;100.00;99062.03;2038809;29;20281;-72
2021/11/25 02:46:32;;;;;;;124.47;63.92;;;;;;;-3.21;100.00;99058.03;2030977;29;20231;-72
2021/11/25 02:47:34;;;;;;;126.23;64.13;;;;;;;-3.23;100.00;99057.44;2038746;29;20231;-72
2021/11/25 02:48:38;;;;;;;118.97;62.65;;;;;;;-3.26;100.00;99063.06;2038850;29;20239;-73
2021/11/25 02:49:42;;;;;;;119.03;59.20;;;;;;;-3.28;100.00;99050.22;2039376;28;20245;-73
2021/11/25 02:50:45;;;;;;;115.03;61.17;;;;;;;-3.28;100.00;99047.63;2039452;28;20234;-72
2021/11/25 02:51:49;;;;;;;129.98;62.97;;;;;;;-3.30;100.00;99043.59;2039522;28;20222;-73
2021/11/25 02:52:50;;;;;;;135.13;64.03;;;;;;;-3.32;100.00;99043.81;2039497;28;20223;-72
2021/11/25 02:53:53;;;;;;;139.10;63.85;;;;;;;-3.34;100.00;99038.00;2038838;29;20267;-72
2021/11/25 02:54:54;;;;;;;122.03;61.13;;;;;;;-3.37;100.00;99043.66;2038547;29;20281;-73
2021/11/25 02:55:56;;;;;;;121.77;61.03;;;;;;;-3.34;100.00;99048.44;2039490;28;20281;-73
2021/11/25 02:56:58;;;;;;;128.88;65.35;;;;;;;-3.34;100.00;99042.44;2038923;29;20242;-73
2021/11/25 02:58:00;;;;;;;124.22;65.30;;;;;;;-3.36;100.00;99039.22;2038827;29;20285;-73
2021/11/25 02:59:01;;;;;;;130.70;64.28;;;;;;;-3.36;100.00;99044.44;2039032;29;20313;-72
2021/11/25 03:00:05;;;;;;;126.77;65.33;;;;;;;-3.36;100.00;99034.81;2038859;29;20223;-73
2021/11/25 03:01:09;;;;;;;119.95;63.78;;;;;;;-3.35;100.00;99027.78;2039393;28;20231;-73
2021/11/25 03:02:10;;;;;;;138.77;67.07;;;;;;;-3.31;100.00;99029.75;2039213;28;20233;-73
2021/11/25 03:03:19;;;;;;;126.73;63.67;;;;;;;-3.29;100.00;99034.78;2039423;28;20724;-73
2021/11/25 03:04:22;;;;;;;133.07;65.93;;;;;;;-3.29;100.00;99038.19;2039464;28;20717;-72
2021/11/25 03:05:25;;;;;;;142.00;66.95;;;;;;;-3.23;100.00;99028.72;2039203;28;20580;-73
2021/11/25 03:06:30;;;;;;;128.93;65.80;;;;;;;-3.23;100.00;99032.13;2030783;29;20271;-73
2021/11/25 03:07:33;;;;;;;132.68;66.78;;;;;;;-3.17;100.00;99028.72;2024067;29;20227;-72
2021/11/25 03:08:50;;;;;;;123.72;65.38;;;;;;;-3.17;100.00;99020.09;2038777;29;20696;-73
2021/11/25 03:09:50;;;;;;;131.13;65.18;;;;;;;-3.11;100.00;99029.69;2038416;29;20223;-73
2021/11/25 03:10:56;;;;;;;140.83;69.00;;;;;;;-3.06;100.00;99024.63;2038588;29;20264;-73
2021/11/25 03:11:57;;;;;;;141.30;67.15;;;;;;;-3.07;100.00;99027.47;2039025;28;20235;-73
2021/11/25 03:12:59;;;;;;;141.70;68.13;;;;;;;-3.09;100.00;99017.22;2039626;28;20234;-73
2021/11/25 03:14:05;;;;;;;145.35;69.35;;;;;;;-3.07;100.00;99024.84;2038792;29;20227;-72
2021/11/25 03:15:06;;;;;;;135.52;68.90;;;;;;;-3.03;100.00;99016.41;2038712;29;20233;-72
2021/11/25 03:16:09;;;;;;;137.73;68.32;;;;;;;-2.90;100.00;99018.13;2039111;28;20580;-74
2021/11/25 03:17:13;;;;;;;140.75;67.07;;;;;;;-2.83;100.00;99018.09;2039123;28;20317;-73
2021/11/25 03:18:16;;;;;;;131.20;66.88;;;;;;;-2.86;100.00;99012.28;2038927;29;20246;-72
2021/11/25 03:19:17;;;;;;;138.95;68.70;;;;;;;-2.86;100.00;99006.28;2038585;29;20227;-72
2021/11/25 03:20:21;;;;;;;134.23;68.17;;;;;;;-2.92;100.00;99005.28;2038320;29;20269;-73
2021/11/25 03:21:24;;;;;;;131.82;67.70;;;;;;;-2.93;100.00;99001.09;2038260;28;20776;-73
2021/11/25 03:22:25;;;;;;;131.88;67.95;;;;;;;-2.91;100.00;99000.88;2038503;29;20736;-72
2021/11/25 03:23:30;;;;;;;127.43;65.90;;;;;;;-2.87;100.00;99005.47;2038604;29;20641;-72
2021/11/25 03:24:31;;;;;;;130.52;67.40;;;;;;;-2.91;100.00;99001.69;2038608;29;20301;-72
2021/11/25 03:25:38;;;;;;;129.20;65.88;;;;;;;-2.89;100.00;98999.66;2039375;28;20246;-72
2021/11/25 03:26:40;;;;;;;143.70;70.25;;;;;;;-2.93;100.00;98995.06;2038112;29;20242;-73
2021/11/25 03:27:40;;;;;;;132.38;68.78;;;;;;;-2.98;100.00;98995.69;2030844;29;20804;-73
2021/11/25 03:28:43;;;;;;;125.93;66.33;;;;;;;-2.98;100.00;99000.91;2038415;29;21291;-72
2021/11/25 03:29:44;;;;;;;132.73;68.30;;;;;;;-3.03;100.00;98998.13;2038695;29;20603;-72
2021/11/25 03:30:53;;;;;;;136.43;68.67;;;;;;;-3.05;100.00;99001.94;2038317;29;20223;-72
2021/11/25 03:31:55;;;;;;;125.90;66.28;;;;;;;-3.07;100.00;98996.94;2031120;29;20256;-73
2021/11/25 03:32:58;;;;;;;131.30;67.20;;;;;;;-3.10;100.00;98992.16;2038473;29;20278;-73
2021/11/25 03:34:00;;;;;;;123.55;65.15;;;;;;;-3.10;100.00;98991.34;2038354;29;20644;-73
2021/11/25 03:35:01;;;;;;;131.15;66.03;;;;;;;-3.14;100.00;98989.16;2038553;29;20234;-72
2021/11/25 03:36:04;;;;;;;124.47;64.82;;;;;;;-3.12;100.00;98988.97;2038567;29;20222;-72
2021/11/25 03:37:06;;;;;;;123.95;65.68;;;;;;;-3.17;100.00;98976.53;2038249;29;20236;-73
2021/11/25 03:38:10;;;;;;;139.25;68.50;;;;;;;-3.15;100.00;98982.31;2037786;29;20732;-73
2021/11/25 03:39:16;;;;;;;128.73;67.93;;;;;;;-3.19;100.00;98983.78;2038158;29;20592;-72
2021/11/25 03:40:17;;;;;;;131.10;67.65;;;;;;;-3.17;100.00;98986.16;2038321;29;20223;-72
2021/11/25 03:41:20;;;;;;;139.53;67.73;;;;;;;-3.18;100.00;98982.75;2030517;29;20282;-72
2021/11/25 03:42:21;;;;;;;139.90;69.50;;;;;;;-3.17;100.00;98978.34;2030728;29;20737;-72
2021/11/25 03:43:23;;;;;;;132.00;67.33;;;;;;;-3.18;100.00;98977.53;2038461;29;20692;-73
2021/11/25 03:44:24;;;;;;;142.95;70.40;;;;;;;-3.19;100.00;98977.75;2038032;29;20517;-73
2021/11/25 03:45:26;;;;;;;127.20;64.53;;;;;;;-3.23;100.00;98976.56;2038521;29;20234;-72
2021/11/25 03:46:30;;;;;;;128.50;66.20;;;;;;;-3.24;100.00;98970.53;2030652;29;20223;-72
2021/11/25 03:47:31;;;;;;;125.53;65.80;;;;;;;-3.25;100.00;98975.97;2030962;29;20227;-73
2021/11/25 03:48:32;;;;;;;137.60;68.80;;;;;;;-3.27;100.00;98973.56;2038324;29;20226;-72
2021/11/25 03:49:34;;;;;;;135.33;66.50;;;;;;;-3.28;100.00;98973.78;2039058;28;20233;-72
2021/11/25 03:50:35;;;;;;;133.45;67.13;;;;;;;-3.30;100.00;98970.56;2038958;28;20226;-73
2021/11/25 03:51:37;;;;;;;129.10;68.00;;;;;;;-3.27;100.00;98970.16;2038340;29;20234;-72
2021/11/25 03:52:38;;;;;;;125.57;67.55;;;;;;;-3.29;100.00;98970.38;2030072;29;20685;-73
2021/11/25 03:53:48;;;;;;;134.77;68.20;;;;;;;-3.31;100.00;98972.38;2038344;29;20293;-73
2021/11/25 03:54:54;;;;;;;129.63;67.10;;;;;;;-3.29;100.00;98974.81;2038507;29;20545;-72
2021/11/25 03:55:57;;;;;;;134.77;68.65;;;;;;;-3.32;100.00;98964.75;2038077;28;20614;-73
2021/11/25 03:56:57;;;;;;;132.80;69.82;;;;;;;-3.33;100.00;98965.78;2038295;29;20238;-72
2021/11/25 03:57:59;;;;;;;144.47;70.73;;;;;;;-3.30;100.00;98965.34;2030427;29;20222;-72
2021/11/25 03:59:02;;;;;;;130.45;69.55;;;;;;;-3.32;100.00;98967.38;2038310;29;20223;-72
2021/11/25 04:00:06;;;;;;;140.68;69.07;;;;;;;-3.29;100.00;98964.38;2038335;29;20226;-72
2021/11/25 04:01:13;;;;;;;135.80;69.75;;;;;;;-3.35;100.00;98949.53;2037987;28;20226;-73
2021/11/25 04:02:14;;;;;;;139.38;68.13;;;;;;;-3.31;100.00;98966.34;2039038;28;20230;-74
2021/11/25 04:03:15;;;;;;;139.18;70.00;;;;;;;-3.33;100.00;98963.97;2039000;28;20550;-73
2021/11/25 04:04:17;;;;;;;129.70;68.73;;;;;;;-3.36;100.00;98950.56;2038199;29;20277;-73
2021/11/25 04:05:18;;;;;;;127.28;66.80;;;;;;;-3.38;100.00;98955.97;2030431;29;20223;-72
2021/11/25 04:06:20;;;;;;;122.97;66.60;;;;;;;-3.38;100.00;98953.38;2038222;29;20261;-73
2021/11/25 04:07:22;;;;;;;139.00;67.90;;;;;;;-3.38;100.00;98952.56;2038971;28;20227;-73
2021/11/25 04:08:24;;;;;;;138.63;68.35;;;;;;;-3.42;100.00;98947.75;2038543;28;20237;-73
2021/11/25 04:09:25;;;;;;;129.93;68.13;;;;;;;-3.44;100.00;98951.59;2038870;28;20277;-72
2021/11/25 04:10:28;;;;;;;132.70;65.53;;;;;;;-3.47;100.00;98947.59;2038265;29;20269;-72
2021/11/25 04:11:28;;;;;;;132.32;66.50;;;;;;;-3.47;100.00;98946.81;2038202;29;20230;-72
2021/11/25 04:12:30;;;;;;;131.40;69.03;;;;;;;-3.49;100.00;98946.97;2038361;29;20222;-72
2021/11/25 04:13:34;;;;;;;129.77;70.97;;;;;;;-3.51;100.00;98940.38;2038338;29;20219;-72
2021/11/25 04:14:35;;;;;;;129.32;68.35;;;;;;;-3.53;100.00;98940.59;2038924;28;20222;-72
2021/11/25 04:15:37;;;;;;;129.07;67.27;;;;;;;-3.54;100.00;98939.00;2038217;29;20235;-72
2021/11/25 04:16:39;;;;;;;135.55;69.28;;;;;;;-3.56;100.00;98930.59;2037830;29;20470;-72
2021/11/25 04:17:41;;;;;;;126.50;66.70;;;;;;;-3.56;100.00;98930.59;2038864;28;20693;-72
2021/11/25 04:18:42;;;;;;;127.00;66.13;;;;;;;-3.57;100.00;98936.00;2038093;29;20245;-73
2021/11/25 04:19:43;;;;;;;135.33;69.40;;;;;;;-3.58;100.00;98932.59;2038067;29;20247;-73
2021/11/25 04:20:45;;;;;;;124.43;64.95;;;;;;;-3.60;100.00;98932.00;2037979;29;20634;-72
2021/11/25 04:21:46;;;;;;;131.90;67.28;;;;;;;-3.59;100.00;98924.97;2038029;29;20241;-72
2021/11/25 04:22:48;;;;;;;131.40;66.78;;;;;;;-3.59;100.00;98924.97;2038119;29;20305;-72
2021/11/25 04:23:50;;;;;;;128.95;67.60;;;;;;;-3.61;100.00;98925.19;2030303;29;20709;-72
2021/11/25 04:24:52;;;;;;;139.20;67.22;;;;;;;-3.62;100.00;98915.78;2030365;29;20801;-72
2021/11/25 04:25:56;;;;;;;137.15;68.35;;;;;;;-3.65;100.00;98916.16;2037839;29;20673;-72
2021/11/25 04:26:57;;;;;;;136.50;66.18;;;;;;;-3.67;100.00;98912.16;2038850;28;20286;-72
2021/11/25 04:27:59;;;;;;;123.70;65.30;;;;;;;-3.67;100.00;98910.38;2038778;28;20295;-72
2021/11/25 04:29:04;;;;;;;140.20;67.22;;;;;;;-3.67;100.00;98907.75;2038057;29;20606;-72
2021/11/25 04:30:11;;;;;;;130.55;65.80;;;;;;;-3.71;100.00;98910.00;2038039;29;20229;-72
2021/11/25 04:35:33;;;;;;;120.18;62.13;;;;;;;-3.76;100.00;98904.59;2038372;28;20230;-72
2021/11/25 04:36:35;;;;;;;127.85;63.58;;;;;;;-3.78;100.00;98901.41;2037987;29;20233;-73
2021/11/25 04:37:38;;;;;;;131.30;65.63;;;;;;;-3.80;100.00;98906.03;2037581;28;20227;-73
2021/11/25 04:38:39;;;;;;;125.22;66.38;;;;;;;-3.84;100.00;98897.00;2037933;29;20226;-72
2021/11/25 04:39:41;;;;;;;127.68;65.72;;;;;;;-3.84;100.00;98896.19;2038140;29;20242;-72
2021/11/25 04:40:46;;;;;;;126.93;65.53;;;;;;;-3.82;100.00;98899.41;2037957;29;20337;-72
2021/11/25 04:41:50;;;;;;;124.93;65.53;;;;;;;-3.85;100.00;98897.22;2038078;29;20273;-72
2021/11/25 04:42:53;;;;;;;124.90;64.05;;;;;;;-3.86;100.00;98893.00;2038748;28;20625;-72
2021/11/25 04:43:55;;;;;;;129.68;67.28;;;;;;;-3.87;100.00;98894.81;2038387;28;20230;-72
2021/11/25 04:44:56;;;;;;;132.80;68.82;;;;;;;-3.86;100.00;98890.41;2037774;29;20307;-72